sensor_id;sensor_type;location;lat;lon;timestamp;P1;durP1;ratioP1;P2;durP2;ratioP2
12407;SDS011;6268;48.188;17.134;2022-10-31T00:01:36;14.13;;;12.45;;
12407;SDS011;6268;48.188;17.134;2022-10-31T00:04:06;13.27;;;11.90;;
12407;SDS011;6268;48.188;17.134;2022-10-31T00:06:35;13.90;;;12.15;;
12407;SDS011;6268;48.188;17.134;2022-10-31T00:09:04;13.48;;;12.18;;
12407;SDS011;6268;48.188;17.134;2022-10-31T00:11:34;14.82;;;13.25;;
12407;SDS011;6268;48.188;17.134;2022-10-31T00:14:03;13.63;;;11.82;;
12407;SDS011;6268;48.188;17.134;2022-10-31T00:16:31;14.10;;;12.60;;
12407;SDS011;6268;48.188;17.134;2022-10-31T00:19:01;12.48;;;11.25;;
12407;SDS011;6268;48.188;17.134;2022-10-31T00:21:33;13.65;;;11.75;;
12407;SDS011;6268;48.188;17.134;2022-10-31T00:24:03;13.55;;;11.15;;
12407;SDS011;6268;48.188;17.134;2022-10-31T00:26:34;12.95;;;11.63;;
12407;SDS011;6268;48.188;17.134;2022-10-31T00:29:03;12.52;;;11.32;;
12407;SDS011;6268;48.188;17.134;2022-10-31T00:31:31;11.57;;;10.40;;
12407;SDS011;6268;48.188;17.134;2022-10-31T00:34:00;12.07;;;10.88;;
12407;SDS011;6268;48.188;17.134;2022-10-31T00:36:30;13.48;;;11.68;;
12407;SDS011;6268;48.188;17.134;2022-10-31T00:38:58;12.60;;;11.27;;
12407;SDS011;6268;48.188;17.134;2022-10-31T00:41:27;13.80;;;12.25;;
12407;SDS011;6268;48.188;17.134;2022-10-31T00:43:57;12.95;;;11.52;;
12407;SDS011;6268;48.188;17.134;2022-10-31T00:46:26;13.02;;;10.98;;
12407;SDS011;6268;48.188;17.134;2022-10-31T00:48:55;12.88;;;11.35;;
12407;SDS011;6268;48.188;17.134;2022-10-31T00:51:23;13.88;;;11.30;;
12407;SDS011;6268;48.188;17.134;2022-10-31T00:53:52;14.25;;;12.48;;
12407;SDS011;6268;48.188;17.134;2022-10-31T00:56:20;14.05;;;12.07;;
12407;SDS011;6268;48.188;17.134;2022-10-31T00:58:49;12.18;;;10.90;;
12407;SDS011;6268;48.188;17.134;2022-10-31T01:01:19;14.15;;;12.65;;
12407;SDS011;6268;48.188;17.134;2022-10-31T01:03:48;13.02;;;11.65;;
12407;SDS011;6268;48.188;17.134;2022-10-31T01:06:16;14.02;;;12.07;;
12407;SDS011;6268;48.188;17.134;2022-10-31T01:08:46;12.52;;;11.23;;
12407;SDS011;6268;48.188;17.134;2022-10-31T01:11:16;16.40;;;12.05;;
12407;SDS011;6268;48.188;17.134;2022-10-31T01:13:49;13.63;;;11.98;;
12407;SDS011;6268;48.188;17.134;2022-10-31T01:16:22;14.60;;;12.52;;
12407;SDS011;6268;48.188;17.134;2022-10-31T01:18:53;13.45;;;12.05;;
12407;SDS011;6268;48.188;17.134;2022-10-31T01:21:22;12.75;;;11.45;;
12407;SDS011;6268;48.188;17.134;2022-10-31T01:23:54;13.25;;;11.85;;
12407;SDS011;6268;48.188;17.134;2022-10-31T01:26:24;14.00;;;11.45;;
12407;SDS011;6268;48.188;17.134;2022-10-31T01:28:56;13.23;;;11.52;;
12407;SDS011;6268;48.188;17.134;2022-10-31T01:31:30;12.43;;;11.23;;
12407;SDS011;6268;48.188;17.134;2022-10-31T01:34:01;11.80;;;10.60;;
12407;SDS011;6268;48.188;17.134;2022-10-31T01:36:32;13.55;;;11.40;;
12407;SDS011;6268;48.188;17.134;2022-10-31T01:39:04;11.70;;;10.20;;
12407;SDS011;6268;48.188;17.134;2022-10-31T01:41:36;13.23;;;11.02;;
12407;SDS011;6268;48.188;17.134;2022-10-31T01:47:21;13.75;;;11.70;;
12407;SDS011;6268;48.188;17.134;2022-10-31T01:50:00;10.95;;;9.90;;
12407;SDS011;6268;48.188;17.134;2022-10-31T01:52:38;12.52;;;11.25;;
12407;SDS011;6268;48.188;17.134;2022-10-31T01:55:13;11.93;;;10.73;;
12407;SDS011;6268;48.188;17.134;2022-10-31T01:57:51;12.43;;;11.23;;
12407;SDS011;6268;48.188;17.134;2022-10-31T02:00:24;11.45;;;10.35;;
12407;SDS011;6268;48.188;17.134;2022-10-31T02:02:54;13.88;;;11.55;;
12407;SDS011;6268;48.188;17.134;2022-10-31T02:05:24;12.02;;;10.50;;
12407;SDS011;6268;48.188;17.134;2022-10-31T02:07:57;12.02;;;10.73;;
12407;SDS011;6268;48.188;17.134;2022-10-31T02:10:32;12.57;;;10.95;;
12407;SDS011;6268;48.188;17.134;2022-10-31T02:13:04;11.85;;;10.70;;
12407;SDS011;6268;48.188;17.134;2022-10-31T02:15:35;11.77;;;10.57;;
12407;SDS011;6268;48.188;17.134;2022-10-31T02:18:07;11.93;;;10.63;;
12407;SDS011;6268;48.188;17.134;2022-10-31T02:20:39;10.93;;;9.85;;
12407;SDS011;6268;48.188;17.134;2022-10-31T02:23:36;11.00;;;9.43;;
12407;SDS011;6268;48.188;17.134;2022-10-31T02:32:43;11.20;;;10.10;;
12407;SDS011;6268;48.188;17.134;2022-10-31T02:35:28;11.18;;;10.05;;
12407;SDS011;6268;48.188;17.134;2022-10-31T02:38:21;11.60;;;10.50;;
12407;SDS011;6268;48.188;17.134;2022-10-31T02:41:00;11.63;;;9.90;;
12407;SDS011;6268;48.188;17.134;2022-10-31T02:43:40;11.63;;;10.00;;
12407;SDS011;6268;48.188;17.134;2022-10-31T02:46:23;11.10;;;9.88;;
12407;SDS011;6268;48.188;17.134;2022-10-31T02:49:02;10.50;;;9.50;;
12407;SDS011;6268;48.188;17.134;2022-10-31T02:51:37;10.70;;;9.70;;
12407;SDS011;6268;48.188;17.134;2022-10-31T02:54:15;14.65;;;10.48;;
12407;SDS011;6268;48.188;17.134;2022-10-31T02:56:51;11.02;;;9.85;;
12407;SDS011;6268;48.188;17.134;2022-10-31T02:59:26;9.93;;;9.02;;
12407;SDS011;6268;48.188;17.134;2022-10-31T03:02:14;10.38;;;9.35;;
12407;SDS011;6268;48.188;17.134;2022-10-31T03:08:16;9.13;;;8.18;;
12407;SDS011;6268;48.188;17.134;2022-10-31T03:10:56;10.20;;;9.10;;
12407;SDS011;6268;48.188;17.134;2022-10-31T03:13:31;10.00;;;8.95;;
12407;SDS011;6268;48.188;17.134;2022-10-31T03:16:08;9.88;;;8.88;;
12407;SDS011;6268;48.188;17.134;2022-10-31T03:18:43;11.05;;;9.20;;
12407;SDS011;6268;48.188;17.134;2022-10-31T03:21:20;11.02;;;9.27;;
12407;SDS011;6268;48.188;17.134;2022-10-31T03:23:56;10.68;;;9.45;;
12407;SDS011;6268;48.188;17.134;2022-10-31T03:26:28;12.88;;;10.23;;
12407;SDS011;6268;48.188;17.134;2022-10-31T03:28:59;11.82;;;10.52;;
12407;SDS011;6268;48.188;17.134;2022-10-31T03:31:33;10.25;;;9.25;;
12407;SDS011;6268;48.188;17.134;2022-10-31T03:34:06;12.60;;;10.30;;
12407;SDS011;6268;48.188;17.134;2022-10-31T03:36:38;14.82;;;10.05;;
12407;SDS011;6268;48.188;17.134;2022-10-31T03:39:11;14.48;;;10.63;;
12407;SDS011;6268;48.188;17.134;2022-10-31T03:41:46;12.70;;;10.30;;
12407;SDS011;6268;48.188;17.134;2022-10-31T03:44:21;14.18;;;11.07;;
12407;SDS011;6268;48.188;17.134;2022-10-31T03:46:51;11.95;;;9.98;;
12407;SDS011;6268;48.188;17.134;2022-10-31T03:49:20;13.57;;;10.88;;
12407;SDS011;6268;48.188;17.134;2022-10-31T03:51:53;13.38;;;10.65;;
12407;SDS011;6268;48.188;17.134;2022-10-31T03:54:30;14.98;;;11.50;;
12407;SDS011;6268;48.188;17.134;2022-10-31T03:57:06;13.35;;;10.93;;
12407;SDS011;6268;48.188;17.134;2022-10-31T03:59:47;15.63;;;11.38;;
12407;SDS011;6268;48.188;17.134;2022-10-31T04:02:22;14.95;;;11.63;;
12407;SDS011;6268;48.188;17.134;2022-10-31T04:04:58;16.05;;;11.52;;
12407;SDS011;6268;48.188;17.134;2022-10-31T04:07:31;18.85;;;11.82;;
12407;SDS011;6268;48.188;17.134;2022-10-31T04:10:06;13.52;;;10.63;;
12407;SDS011;6268;48.188;17.134;2022-10-31T04:12:40;13.32;;;10.50;;
12407;SDS011;6268;48.188;17.134;2022-10-31T04:15:12;12.30;;;10.20;;
12407;SDS011;6268;48.188;17.134;2022-10-31T04:17:41;11.57;;;10.27;;
12407;SDS011;6268;48.188;17.134;2022-10-31T04:20:15;10.77;;;8.98;;
12407;SDS011;6268;48.188;17.134;2022-10-31T04:22:46;11.35;;;9.40;;
12407;SDS011;6268;48.188;17.134;2022-10-31T04:25:14;10.20;;;8.85;;
12407;SDS011;6268;48.188;17.134;2022-10-31T04:27:43;9.27;;;8.35;;
12407;SDS011;6268;48.188;17.134;2022-10-31T04:30:12;10.63;;;8.75;;
12407;SDS011;6268;48.188;17.134;2022-10-31T04:32:40;9.13;;;8.10;;
12407;SDS011;6268;48.188;17.134;2022-10-31T04:35:09;9.00;;;8.10;;
12407;SDS011;6268;48.188;17.134;2022-10-31T04:37:38;9.23;;;8.05;;
12407;SDS011;6268;48.188;17.134;2022-10-31T04:40:08;9.20;;;8.25;;
12407;SDS011;6268;48.188;17.134;2022-10-31T04:42:38;8.73;;;7.35;;
12407;SDS011;6268;48.188;17.134;2022-10-31T04:45:07;8.65;;;7.25;;
12407;SDS011;6268;48.188;17.134;2022-10-31T04:47:42;8.68;;;7.68;;
12407;SDS011;6268;48.188;17.134;2022-10-31T04:50:10;8.52;;;7.63;;
12407;SDS011;6268;48.188;17.134;2022-10-31T04:52:39;10.27;;;7.85;;
12407;SDS011;6268;48.188;17.134;2022-10-31T04:55:10;9.13;;;8.05;;
12407;SDS011;6268;48.188;17.134;2022-10-31T04:57:41;8.73;;;7.85;;
12407;SDS011;6268;48.188;17.134;2022-10-31T05:00:11;8.30;;;7.50;;
12407;SDS011;6268;48.188;17.134;2022-10-31T05:02:42;8.68;;;7.53;;
12407;SDS011;6268;48.188;17.134;2022-10-31T05:05:12;8.32;;;7.50;;
12407;SDS011;6268;48.188;17.134;2022-10-31T05:07:41;8.90;;;8.00;;
12407;SDS011;6268;48.188;17.134;2022-10-31T05:10:14;9.05;;;8.15;;
12407;SDS011;6268;48.188;17.134;2022-10-31T05:12:45;9.75;;;8.05;;
12407;SDS011;6268;48.188;17.134;2022-10-31T05:15:15;8.10;;;7.30;;
12407;SDS011;6268;48.188;17.134;2022-10-31T05:17:45;8.32;;;7.53;;
12407;SDS011;6268;48.188;17.134;2022-10-31T05:20:14;9.77;;;7.97;;
12407;SDS011;6268;48.188;17.134;2022-10-31T05:22:45;8.65;;;7.82;;
12407;SDS011;6268;48.188;17.134;2022-10-31T05:25:19;10.00;;;8.20;;
12407;SDS011;6268;48.188;17.134;2022-10-31T05:27:50;10.32;;;8.23;;
12407;SDS011;6268;48.188;17.134;2022-10-31T05:30:21;9.07;;;8.18;;
12407;SDS011;6268;48.188;17.134;2022-10-31T05:32:53;9.90;;;8.23;;
12407;SDS011;6268;48.188;17.134;2022-10-31T05:35:23;8.23;;;7.43;;
12407;SDS011;6268;48.188;17.134;2022-10-31T05:37:54;9.07;;;7.78;;
12407;SDS011;6268;48.188;17.134;2022-10-31T05:40:25;8.90;;;7.03;;
12407;SDS011;6268;48.188;17.134;2022-10-31T05:42:56;8.13;;;7.35;;
12407;SDS011;6268;48.188;17.134;2022-10-31T05:45:26;8.55;;;7.70;;
12407;SDS011;6268;48.188;17.134;2022-10-31T05:47:55;10.02;;;7.97;;
12407;SDS011;6268;48.188;17.134;2022-10-31T05:50:27;10.80;;;8.02;;
12407;SDS011;6268;48.188;17.134;2022-10-31T05:52:58;10.38;;;8.93;;
12407;SDS011;6268;48.188;17.134;2022-10-31T05:55:31;10.82;;;9.05;;
12407;SDS011;6268;48.188;17.134;2022-10-31T05:58:00;11.60;;;8.35;;
12407;SDS011;6268;48.188;17.134;2022-10-31T06:00:29;8.13;;;7.32;;
12407;SDS011;6268;48.188;17.134;2022-10-31T06:02:58;10.55;;;8.40;;
12407;SDS011;6268;48.188;17.134;2022-10-31T06:05:28;9.05;;;8.07;;
12407;SDS011;6268;48.188;17.134;2022-10-31T06:07:57;10.20;;;8.43;;
12407;SDS011;6268;48.188;17.134;2022-10-31T06:10:27;11.75;;;8.57;;
12407;SDS011;6268;48.188;17.134;2022-10-31T06:12:57;9.00;;;8.10;;
12407;SDS011;6268;48.188;17.134;2022-10-31T06:15:26;9.90;;;8.38;;
12407;SDS011;6268;48.188;17.134;2022-10-31T06:17:58;9.27;;;8.38;;
12407;SDS011;6268;48.188;17.134;2022-10-31T06:20:30;9.93;;;8.07;;
12407;SDS011;6268;48.188;17.134;2022-10-31T06:23:00;8.88;;;7.97;;
12407;SDS011;6268;48.188;17.134;2022-10-31T06:25:30;9.07;;;8.23;;
12407;SDS011;6268;48.188;17.134;2022-10-31T06:28:00;8.82;;;7.85;;
12407;SDS011;6268;48.188;17.134;2022-10-31T06:30:29;9.85;;;8.18;;
12407;SDS011;6268;48.188;17.134;2022-10-31T06:33:01;10.48;;;8.00;;
12407;SDS011;6268;48.188;17.134;2022-10-31T06:35:31;9.77;;;7.88;;
12407;SDS011;6268;48.188;17.134;2022-10-31T06:38:00;8.38;;;7.57;;
12407;SDS011;6268;48.188;17.134;2022-10-31T06:40:29;10.25;;;8.63;;
12407;SDS011;6268;48.188;17.134;2022-10-31T06:42:58;13.45;;;9.20;;
12407;SDS011;6268;48.188;17.134;2022-10-31T06:45:29;9.20;;;8.30;;
12407;SDS011;6268;48.188;17.134;2022-10-31T06:47:57;12.25;;;8.73;;
12407;SDS011;6268;48.188;17.134;2022-10-31T06:50:43;10.07;;;7.82;;
12407;SDS011;6268;48.188;17.134;2022-10-31T06:53:11;9.38;;;8.35;;
12407;SDS011;6268;48.188;17.134;2022-10-31T06:55:41;10.82;;;8.38;;
12407;SDS011;6268;48.188;17.134;2022-10-31T06:58:11;10.48;;;8.73;;
12407;SDS011;6268;48.188;17.134;2022-10-31T07:00:40;9.82;;;8.63;;
12407;SDS011;6268;48.188;17.134;2022-10-31T07:03:10;10.07;;;8.30;;
12407;SDS011;6268;48.188;17.134;2022-10-31T07:05:42;11.65;;;9.43;;
12407;SDS011;6268;48.188;17.134;2022-10-31T07:08:11;13.10;;;10.20;;
12407;SDS011;6268;48.188;17.134;2022-10-31T07:10:41;10.73;;;9.50;;
12407;SDS011;6268;48.188;17.134;2022-10-31T07:13:19;9.02;;;8.13;;
12407;SDS011;6268;48.188;17.134;2022-10-31T07:15:52;10.00;;;9.10;;
12407;SDS011;6268;48.188;17.134;2022-10-31T07:18:22;12.95;;;9.32;;
12407;SDS011;6268;48.188;17.134;2022-10-31T07:20:51;9.82;;;8.77;;
12407;SDS011;6268;48.188;17.134;2022-10-31T07:23:20;12.50;;;11.00;;
12407;SDS011;6268;48.188;17.134;2022-10-31T07:25:53;11.60;;;9.57;;
12407;SDS011;6268;48.188;17.134;2022-10-31T07:28:25;10.50;;;9.27;;
12407;SDS011;6268;48.188;17.134;2022-10-31T07:30:55;11.38;;;10.18;;
12407;SDS011;6268;48.188;17.134;2022-10-31T07:33:25;10.48;;;9.35;;
12407;SDS011;6268;48.188;17.134;2022-10-31T07:35:53;10.07;;;9.07;;
12407;SDS011;6268;48.188;17.134;2022-10-31T07:38:22;11.65;;;10.45;;
12407;SDS011;6268;48.188;17.134;2022-10-31T07:40:51;12.27;;;11.07;;
12407;SDS011;6268;48.188;17.134;2022-10-31T07:43:20;12.35;;;9.82;;
12407;SDS011;6268;48.188;17.134;2022-10-31T07:45:50;14.43;;;12.98;;
12407;SDS011;6268;48.188;17.134;2022-10-31T07:48:20;13.48;;;11.35;;
12407;SDS011;6268;48.188;17.134;2022-10-31T07:50:49;13.90;;;10.10;;
12407;SDS011;6268;48.188;17.134;2022-10-31T07:53:17;12.50;;;10.73;;
12407;SDS011;6268;48.188;17.134;2022-10-31T07:55:46;11.48;;;10.30;;
12407;SDS011;6268;48.188;17.134;2022-10-31T07:58:15;10.07;;;9.07;;
12407;SDS011;6268;48.188;17.134;2022-10-31T08:00:45;12.05;;;10.27;;
12407;SDS011;6268;48.188;17.134;2022-10-31T08:03:17;13.05;;;11.30;;
12407;SDS011;6268;48.188;17.134;2022-10-31T08:05:46;12.13;;;10.93;;
12407;SDS011;6268;48.188;17.134;2022-10-31T08:08:15;13.23;;;10.95;;
12407;SDS011;6268;48.188;17.134;2022-10-31T08:10:44;12.73;;;10.65;;
12407;SDS011;6268;48.188;17.134;2022-10-31T08:13:13;11.25;;;10.15;;
12407;SDS011;6268;48.188;17.134;2022-10-31T08:15:42;11.25;;;10.05;;
12407;SDS011;6268;48.188;17.134;2022-10-31T08:18:17;10.82;;;9.68;;
12407;SDS011;6268;48.188;17.134;2022-10-31T08:20:48;10.82;;;9.80;;
12407;SDS011;6268;48.188;17.134;2022-10-31T08:23:17;11.85;;;10.65;;
12407;SDS011;6268;48.188;17.134;2022-10-31T08:25:46;13.43;;;10.93;;
12407;SDS011;6268;48.188;17.134;2022-10-31T08:28:15;12.30;;;10.43;;
12407;SDS011;6268;48.188;17.134;2022-10-31T08:30:43;11.80;;;10.60;;
12407;SDS011;6268;48.188;17.134;2022-10-31T08:33:15;13.00;;;11.63;;
12407;SDS011;6268;48.188;17.134;2022-10-31T08:35:47;14.52;;;12.88;;
12407;SDS011;6268;48.188;17.134;2022-10-31T08:38:16;13.15;;;11.40;;
12407;SDS011;6268;48.188;17.134;2022-10-31T08:40:47;13.57;;;12.20;;
12407;SDS011;6268;48.188;17.134;2022-10-31T08:43:17;14.95;;;12.27;;
12407;SDS011;6268;48.188;17.134;2022-10-31T08:45:47;14.95;;;12.35;;
12407;SDS011;6268;48.188;17.134;2022-10-31T08:48:18;15.38;;;12.52;;
12407;SDS011;6268;48.188;17.134;2022-10-31T08:50:47;13.13;;;11.82;;
12407;SDS011;6268;48.188;17.134;2022-10-31T08:53:16;15.07;;;13.35;;
12407;SDS011;6268;48.188;17.134;2022-10-31T08:55:46;15.60;;;14.02;;
12407;SDS011;6268;48.188;17.134;2022-10-31T08:58:16;19.15;;;14.18;;
12407;SDS011;6268;48.188;17.134;2022-10-31T09:00:46;23.40;;;16.88;;
12407;SDS011;6268;48.188;17.134;2022-10-31T09:03:19;21.08;;;17.85;;
12407;SDS011;6268;48.188;17.134;2022-10-31T09:05:50;20.73;;;17.85;;
12407;SDS011;6268;48.188;17.134;2022-10-31T09:08:22;20.17;;;17.00;;
12407;SDS011;6268;48.188;17.134;2022-10-31T09:10:51;22.52;;;17.02;;
12407;SDS011;6268;48.188;17.134;2022-10-31T09:13:24;20.35;;;17.73;;
12407;SDS011;6268;48.188;17.134;2022-10-31T09:15:53;21.30;;;18.52;;
12407;SDS011;6268;48.188;17.134;2022-10-31T09:18:25;18.70;;;16.35;;
12407;SDS011;6268;48.188;17.134;2022-10-31T09:20:56;20.95;;;17.80;;
12407;SDS011;6268;48.188;17.134;2022-10-31T09:23:26;24.25;;;18.38;;
12407;SDS011;6268;48.188;17.134;2022-10-31T09:25:58;20.35;;;16.73;;
12407;SDS011;6268;48.188;17.134;2022-10-31T09:28:30;20.27;;;17.67;;
12407;SDS011;6268;48.188;17.134;2022-10-31T09:30:59;20.80;;;17.50;;
12407;SDS011;6268;48.188;17.134;2022-10-31T09:33:29;22.20;;;17.67;;
12407;SDS011;6268;48.188;17.134;2022-10-31T09:35:58;20.52;;;18.13;;
12407;SDS011;6268;48.188;17.134;2022-10-31T09:38:26;22.00;;;17.13;;
12407;SDS011;6268;48.188;17.134;2022-10-31T09:40:56;22.10;;;19.05;;
12407;SDS011;6268;48.188;17.134;2022-10-31T09:43:44;20.05;;;16.65;;
12407;SDS011;6268;48.188;17.134;2022-10-31T09:46:25;19.35;;;15.52;;
12407;SDS011;6268;48.188;17.134;2022-10-31T09:49:15;20.65;;;16.63;;
12407;SDS011;6268;48.188;17.134;2022-10-31T09:52:12;19.70;;;16.88;;
12407;SDS011;6268;48.188;17.134;2022-10-31T09:54:49;22.23;;;19.55;;
12407;SDS011;6268;48.188;17.134;2022-10-31T09:57:27;26.05;;;21.08;;
12407;SDS011;6268;48.188;17.134;2022-10-31T10:00:00;27.00;;;22.60;;
12407;SDS011;6268;48.188;17.134;2022-10-31T10:02:32;27.90;;;23.48;;
12407;SDS011;6268;48.188;17.134;2022-10-31T10:05:11;29.50;;;24.40;;
12407;SDS011;6268;48.188;17.134;2022-10-31T10:07:49;26.85;;;22.80;;
12407;SDS011;6268;48.188;17.134;2022-10-31T10:10:41;28.15;;;22.95;;
12407;SDS011;6268;48.188;17.134;2022-10-31T10:13:28;30.95;;;23.00;;
12407;SDS011;6268;48.188;17.134;2022-10-31T10:16:21;28.08;;;21.90;;
12407;SDS011;6268;48.188;17.134;2022-10-31T10:19:14;22.50;;;19.45;;
12407;SDS011;6268;48.188;17.134;2022-10-31T10:22:04;22.88;;;19.73;;
12407;SDS011;6268;48.188;17.134;2022-10-31T10:24:48;35.85;;;28.02;;
12407;SDS011;6268;48.188;17.134;2022-10-31T10:27:39;59.45;;;39.78;;
12407;SDS011;6268;48.188;17.134;2022-10-31T10:30:18;68.45;;;48.05;;
12407;SDS011;6268;48.188;17.134;2022-10-31T10:32:50;84.82;;;52.33;;
12407;SDS011;6268;48.188;17.134;2022-10-31T10:35:24;66.38;;;42.67;;
12407;SDS011;6268;48.188;17.134;2022-10-31T10:38:01;41.45;;;32.60;;
12407;SDS011;6268;48.188;17.134;2022-10-31T10:40:41;39.28;;;30.05;;
12407;SDS011;6268;48.188;17.134;2022-10-31T10:43:17;29.48;;;24.55;;
12407;SDS011;6268;48.188;17.134;2022-10-31T10:45:52;27.50;;;22.50;;
12407;SDS011;6268;48.188;17.134;2022-10-31T10:49:04;34.47;;;27.60;;
12407;SDS011;6268;48.188;17.134;2022-10-31T10:51:44;33.40;;;27.88;;
12407;SDS011;6268;48.188;17.134;2022-10-31T10:57:37;28.90;;;24.65;;
12407;SDS011;6268;48.188;17.134;2022-10-31T11:00:22;22.27;;;19.80;;
12407;SDS011;6268;48.188;17.134;2022-10-31T11:02:54;21.58;;;19.38;;
12407;SDS011;6268;48.188;17.134;2022-10-31T11:05:25;20.30;;;18.40;;
12407;SDS011;6268;48.188;17.134;2022-10-31T11:08:01;19.95;;;18.13;;
12407;SDS011;6268;48.188;17.134;2022-10-31T11:10:33;19.58;;;17.55;;
12407;SDS011;6268;48.188;17.134;2022-10-31T11:13:14;20.50;;;18.60;;
12407;SDS011;6268;48.188;17.134;2022-10-31T11:15:51;20.25;;;18.33;;
12407;SDS011;6268;48.188;17.134;2022-10-31T11:18:29;20.73;;;18.77;;
12407;SDS011;6268;48.188;17.134;2022-10-31T11:21:17;19.45;;;17.70;;
12407;SDS011;6268;48.188;17.134;2022-10-31T11:24:01;17.42;;;15.80;;
12407;SDS011;6268;48.188;17.134;2022-10-31T11:26:32;17.75;;;16.15;;
12407;SDS011;6268;48.188;17.134;2022-10-31T11:29:01;17.95;;;16.25;;
12407;SDS011;6268;48.188;17.134;2022-10-31T11:31:30;19.83;;;17.90;;
12407;SDS011;6268;48.188;17.134;2022-10-31T11:34:00;18.67;;;16.85;;
12407;SDS011;6268;48.188;17.134;2022-10-31T11:36:33;19.05;;;17.20;;
12407;SDS011;6268;48.188;17.134;2022-10-31T11:39:12;19.15;;;17.35;;
12407;SDS011;6268;48.188;17.134;2022-10-31T11:41:48;20.23;;;18.23;;
12407;SDS011;6268;48.188;17.134;2022-10-31T11:44:19;22.10;;;20.00;;
12407;SDS011;6268;48.188;17.134;2022-10-31T11:46:53;20.88;;;18.88;;
12407;SDS011;6268;48.188;17.134;2022-10-31T11:49:29;23.33;;;20.95;;
12407;SDS011;6268;48.188;17.134;2022-10-31T11:52:04;23.63;;;21.45;;
12407;SDS011;6268;48.188;17.134;2022-10-31T11:54:44;22.25;;;20.10;;
12407;SDS011;6268;48.188;17.134;2022-10-31T11:57:23;21.90;;;19.60;;
12407;SDS011;6268;48.188;17.134;2022-10-31T11:59:55;20.00;;;18.02;;
12407;SDS011;6268;48.188;17.134;2022-10-31T12:02:26;22.70;;;20.35;;
12407;SDS011;6268;48.188;17.134;2022-10-31T12:04:57;18.60;;;16.90;;
12407;SDS011;6268;48.188;17.134;2022-10-31T12:07:34;22.20;;;20.05;;
12407;SDS011;6268;48.188;17.134;2022-10-31T12:10:04;21.15;;;19.05;;
12407;SDS011;6268;48.188;17.134;2022-10-31T12:12:50;22.27;;;20.17;;
12407;SDS011;6268;48.188;17.134;2022-10-31T12:15:35;29.33;;;26.33;;
12407;SDS011;6268;48.188;17.134;2022-10-31T12:21:18;20.85;;;18.85;;
12407;SDS011;6268;48.188;17.134;2022-10-31T12:24:05;19.98;;;18.17;;
12407;SDS011;6268;48.188;17.134;2022-10-31T12:26:48;18.90;;;17.30;;
12407;SDS011;6268;48.188;17.134;2022-10-31T12:29:34;19.50;;;17.77;;
12407;SDS011;6268;48.188;17.134;2022-10-31T12:32:32;17.55;;;16.05;;
12407;SDS011;6268;48.188;17.134;2022-10-31T12:35:18;18.80;;;17.05;;
12407;SDS011;6268;48.188;17.134;2022-10-31T12:41:09;17.73;;;15.98;;
12407;SDS011;6268;48.188;17.134;2022-10-31T12:43:54;14.73;;;13.38;;
12407;SDS011;6268;48.188;17.134;2022-10-31T12:46:40;13.65;;;12.40;;
12407;SDS011;6268;48.188;17.134;2022-10-31T12:49:36;14.20;;;12.90;;
12407;SDS011;6268;48.188;17.134;2022-10-31T12:52:24;16.30;;;14.90;;
12407;SDS011;6268;48.188;17.134;2022-10-31T12:55:19;18.67;;;17.08;;
12407;SDS011;6268;48.188;17.134;2022-10-31T12:58:07;16.55;;;15.15;;
12407;SDS011;6268;48.188;17.134;2022-10-31T13:00:44;15.40;;;14.00;;
12407;SDS011;6268;48.188;17.134;2022-10-31T13:03:24;16.88;;;15.38;;
12407;SDS011;6268;48.188;17.134;2022-10-31T13:06:02;15.93;;;14.63;;
12407;SDS011;6268;48.188;17.134;2022-10-31T13:08:38;16.52;;;15.05;;
12407;SDS011;6268;48.188;17.134;2022-10-31T13:11:13;15.07;;;13.63;;
12407;SDS011;6268;48.188;17.134;2022-10-31T13:13:49;13.48;;;12.27;;
12407;SDS011;6268;48.188;17.134;2022-10-31T13:16:29;13.10;;;11.90;;
12407;SDS011;6268;48.188;17.134;2022-10-31T13:19:07;12.13;;;11.02;;
12407;SDS011;6268;48.188;17.134;2022-10-31T13:21:43;13.65;;;12.48;;
12407;SDS011;6268;48.188;17.134;2022-10-31T13:24:25;12.57;;;11.57;;
12407;SDS011;6268;48.188;17.134;2022-10-31T13:27:02;13.30;;;12.10;;
12407;SDS011;6268;48.188;17.134;2022-10-31T13:29:50;13.27;;;12.13;;
12407;SDS011;6268;48.188;17.134;2022-10-31T13:32:35;11.63;;;10.65;;
12407;SDS011;6268;48.188;17.134;2022-10-31T13:35:13;12.23;;;11.13;;
12407;SDS011;6268;48.188;17.134;2022-10-31T13:37:51;12.95;;;11.85;;
12407;SDS011;6268;48.188;17.134;2022-10-31T13:40:34;12.23;;;11.23;;
12407;SDS011;6268;48.188;17.134;2022-10-31T13:43:17;12.40;;;11.27;;
12407;SDS011;6268;48.188;17.134;2022-10-31T13:45:57;12.13;;;11.13;;
12407;SDS011;6268;48.188;17.134;2022-10-31T13:48:33;14.65;;;13.27;;
12407;SDS011;6268;48.188;17.134;2022-10-31T13:51:10;15.00;;;13.35;;
12407;SDS011;6268;48.188;17.134;2022-10-31T13:53:45;13.77;;;12.48;;
12407;SDS011;6268;48.188;17.134;2022-10-31T13:56:27;12.48;;;11.25;;
12407;SDS011;6268;48.188;17.134;2022-10-31T13:59:04;10.85;;;9.75;;
12407;SDS011;6268;48.188;17.134;2022-10-31T14:01:51;11.82;;;10.75;;
12407;SDS011;6268;48.188;17.134;2022-10-31T14:04:23;11.45;;;10.25;;
12407;SDS011;6268;48.188;17.134;2022-10-31T14:06:58;10.48;;;9.48;;
12407;SDS011;6268;48.188;17.134;2022-10-31T14:09:37;9.95;;;8.95;;
12407;SDS011;6268;48.188;17.134;2022-10-31T14:12:22;10.52;;;9.60;;
12407;SDS011;6268;48.188;17.134;2022-10-31T14:14:58;11.00;;;10.00;;
12407;SDS011;6268;48.188;17.134;2022-10-31T14:17:36;11.38;;;10.27;;
12407;SDS011;6268;48.188;17.134;2022-10-31T14:20:22;12.27;;;11.13;;
12407;SDS011;6268;48.188;17.134;2022-10-31T14:26:17;12.30;;;10.90;;
12407;SDS011;6268;48.188;17.134;2022-10-31T14:28:58;12.27;;;11.05;;
12407;SDS011;6268;48.188;17.134;2022-10-31T14:31:29;23.00;;;19.95;;
12407;SDS011;6268;48.188;17.134;2022-10-31T14:34:06;18.85;;;15.23;;
12407;SDS011;6268;48.188;17.134;2022-10-31T14:36:56;14.23;;;12.70;;
12407;SDS011;6268;48.188;17.134;2022-10-31T14:39:57;13.23;;;12.02;;
12407;SDS011;6268;48.188;17.134;2022-10-31T14:42:49;17.50;;;12.23;;
12407;SDS011;6268;48.188;17.134;2022-10-31T14:45:44;12.80;;;11.20;;
12407;SDS011;6268;48.188;17.134;2022-10-31T14:48:28;12.90;;;11.13;;
12407;SDS011;6268;48.188;17.134;2022-10-31T14:51:20;12.50;;;11.27;;
12407;SDS011;6268;48.188;17.134;2022-10-31T14:53:52;12.02;;;10.75;;
12407;SDS011;6268;48.188;17.134;2022-10-31T14:56:26;13.60;;;12.23;;
12407;SDS011;6268;48.188;17.134;2022-10-31T14:58:57;15.25;;;13.73;;
12407;SDS011;6268;48.188;17.134;2022-10-31T15:01:33;19.17;;;14.52;;
12407;SDS011;6268;48.188;17.134;2022-10-31T15:04:06;34.38;;;25.52;;
12407;SDS011;6268;48.188;17.134;2022-10-31T15:06:52;21.40;;;15.43;;
12407;SDS011;6268;48.188;17.134;2022-10-31T15:09:29;17.33;;;14.45;;
12407;SDS011;6268;48.188;17.134;2022-10-31T15:12:16;16.70;;;14.20;;
12407;SDS011;6268;48.188;17.134;2022-10-31T15:14:52;12.43;;;11.13;;
12407;SDS011;6268;48.188;17.134;2022-10-31T15:17:21;12.98;;;11.05;;
12407;SDS011;6268;48.188;17.134;2022-10-31T15:19:52;14.52;;;11.95;;
12407;SDS011;6268;48.188;17.134;2022-10-31T15:22:23;24.67;;;17.75;;
12407;SDS011;6268;48.188;17.134;2022-10-31T15:24:55;19.77;;;16.17;;
12407;SDS011;6268;48.188;17.134;2022-10-31T15:27:26;14.82;;;13.38;;
12407;SDS011;6268;48.188;17.134;2022-10-31T15:29:56;15.90;;;14.32;;
12407;SDS011;6268;48.188;17.134;2022-10-31T15:32:25;13.30;;;12.02;;
12407;SDS011;6268;48.188;17.134;2022-10-31T15:34:56;14.07;;;12.60;;